Time;durP1;ratioP1;P1;durP2;ratioP2;P2;SDS_P1;SDS_P2;PMS_P1;PMS_P2;Temp;Humidity;BMP_temperature;BMP_pressure;BME280_temperature;BME280_humidity;BME280_pressure;Samples;Min_cycle;Max_cycle;Signal;HPM_P1;HPM_P2
2023/03/05 00:01:07;;;;;;;2.40;1.02;;;;;;;;;;5065594;28;20491;-79
2023/03/05 00:03:32;;;;;;;1.98;1.27;;;;;;;;;;5054123;28;20017;-79
2023/03/05 00:05:58;;;;;;;4.60;1.20;;;;;;;;;;5053580;28;20051;-79
2023/03/05 00:08:23;;;;;;;3.50;1.20;;;;;;;;;;5035365;28;20029;-78
2023/03/05 00:10:55;;;;;;;2.22;1.10;;;;;;;;;;5053572;28;20579;-79
2023/03/05 00:13:21;;;;;;;2.05;1.00;;;;;;;;;;5031317;28;20411;-79
2023/03/05 00:15:46;;;;;;;1.85;1.20;;;;;;;;;;5053118;28;20029;-79
2023/03/05 00:18:12;;;;;;;2.70;1.20;;;;;;;;;;5052942;28;20035;-79
2023/03/05 00:20:37;;;;;;;2.00;1.10;;;;;;;;;;5053567;28;20029;-79
2023/03/05 00:23:03;;;;;;;2.97;1.10;;;;;;;;;;5054137;28;20423;-79
2023/03/05 00:25:28;;;;;;;2.58;1.02;;;;;;;;;;5053497;28;20091;-79
2023/03/05 00:27:53;;;;;;;3.10;1.10;;;;;;;;;;5053983;28;20496;-79
2023/03/05 00:30:19;;;;;;;3.63;1.33;;;;;;;;;;5018782;28;20036;-80
2023/03/05 00:32:44;;;;;;;2.95;1.40;;;;;;;;;;5019581;28;20040;-79
2023/03/05 00:35:11;;;;;;;3.08;1.40;;;;;;;;;;5034893;28;20075;-79
2023/03/05 00:37:36;;;;;;;4.53;1.33;;;;;;;;;;5034937;28;20063;-79
2023/03/05 00:40:02;;;;;;;1.48;1.08;;;;;;;;;;5034896;28;20435;-79
2023/03/05 00:42:28;;;;;;;3.50;1.30;;;;;;;;;;5070282;28;20071;-79
2023/03/05 00:44:53;;;;;;;3.60;1.20;;;;;;;;;;5072530;28;20047;-78
2023/03/05 00:47:19;;;;;;;3.90;1.38;;;;;;;;;;5024274;28;20028;-79
2023/03/05 00:49:44;;;;;;;2.22;1.00;;;;;;;;;;5072043;28;20032;-79
2023/03/05 00:52:10;;;;;;;2.50;1.13;;;;;;;;;;5071158;28;20070;-79
2023/03/05 00:54:35;;;;;;;2.47;1.10;;;;;;;;;;5054162;28;20052;-79
2023/03/05 00:57:01;;;;;;;2.35;1.00;;;;;;;;;;5071947;28;20144;-79
2023/03/05 00:59:26;;;;;;;1.92;1.10;;;;;;;;;;5053830;28;20451;-79
2023/03/05 01:01:52;;;;;;;1.50;1.00;;;;;;;;;;5053096;28;20055;-79
2023/03/05 01:04:17;;;;;;;2.45;1.10;;;;;;;;;;5036799;28;20079;-79
2023/03/05 01:06:45;;;;;;;2.20;1.00;;;;;;;;;;5053151;28;20039;-79
2023/03/05 01:09:12;;;;;;;3.47;1.10;;;;;;;;;;5071172;28;20029;-79
2023/03/05 01:11:37;;;;;;;2.25;1.02;;;;;;;;;;5053777;28;20037;-79
2023/03/05 01:14:03;;;;;;;1.60;1.08;;;;;;;;;;5054128;28;20032;-79
2023/03/05 01:16:28;;;;;;;2.83;1.20;;;;;;;;;;5053034;28;20482;-79
2023/03/05 01:18:54;;;;;;;1.92;1.10;;;;;;;;;;5053487;28;20059;-80
2023/03/05 01:21:20;;;;;;;3.63;1.00;;;;;;;;;;5070973;28;20074;-80
2023/03/05 01:23:46;;;;;;;2.65;1.20;;;;;;;;;;5071354;28;20036;-79
2023/03/05 01:26:12;;;;;;;1.60;1.00;;;;;;;;;;5035693;28;20106;-79
2023/03/05 01:28:37;;;;;;;2.42;1.30;;;;;;;;;;5053422;28;20106;-79
2023/03/05 01:31:02;;;;;;;;;;;;;;;;;;5052521;28;20060;-79
2023/03/05 01:33:28;;;;;;;4.13;1.13;;;;;;;;;;5059589;28;19971;-79
2023/03/05 01:35:54;;;;;;;1.67;1.10;;;;;;;;;;5046853;28;20476;-79
2023/03/05 01:38:19;;;;;;;;;;;;;;;;;;5044925;28;20101;-80
2023/03/05 01:40:45;;;;;;;2.95;1.00;;;;;;;;;;5054564;28;19948;-79
2023/03/05 01:43:10;;;;;;;1.98;1.10;;;;;;;;;;5051745;28;20036;-79
2023/03/05 01:45:36;;;;;;;2.47;1.10;;;;;;;;;;5034450;28;20434;-79
2023/03/05 01:48:02;;;;;;;3.53;1.17;;;;;;;;;;5034228;28;20029;-80
2023/03/05 01:50:27;;;;;;;;;;;;;;;;;;5052390;28;20497;-79
2023/03/05 01:53:00;;;;;;;2.15;1.00;;;;;;;;;;5033297;28;19917;-79
2023/03/05 01:55:27;;;;;;;2.38;1.17;;;;;;;;;;5033050;28;20028;-79
2023/03/05 01:58:00;;;;;;;2.00;1.05;;;;;;;;;;5016763;28;20033;-79
2023/03/05 02:00:26;;;;;;;2.22;1.02;;;;;;;;;;5016632;28;20403;-79
2023/03/05 02:02:52;;;;;;;2.13;1.15;;;;;;;;;;5033137;28;20546;-79
2023/03/05 02:05:25;;;;;;;4.57;1.20;;;;;;;;;;5050904;28;20036;-79
2023/03/05 02:07:54;;;;;;;2.90;1.08;;;;;;;;;;5013968;28;20076;-79
2023/03/05 02:10:21;;;;;;;2.63;1.10;;;;;;;;;;5033033;28;20075;-80
2023/03/05 02:12:47;;;;;;;3.08;1.10;;;;;;;;;;5032395;28;20098;-79
2023/03/05 02:15:13;;;;;;;4.13;1.50;;;;;;;;;;5033187;28;20021;-79
2023/03/05 02:18:04;;;;;;;2.05;1.10;;;;;;;;;;5050872;28;20047;-80
2023/03/05 02:20:29;;;;;;;;;;;;;;;;;;5051035;28;20404;-80
2023/03/05 02:22:55;;;;;;;2.30;1.10;;;;;;;;;;5031722;28;19909;-79
2023/03/05 02:25:21;;;;;;;3.17;1.30;;;;;;;;;;5050818;28;20032;-78
2023/03/05 02:28:03;;;;;;;3.75;1.50;;;;;;;;;;5016258;28;20059;-80
2023/03/05 02:30:30;;;;;;;4.07;1.27;;;;;;;;;;5050333;28;20060;-79
2023/03/05 02:32:55;;;;;;;2.53;1.17;;;;;;;;;;5032132;28;20128;-79
2023/03/05 02:35:21;;;;;;;1.77;1.20;;;;;;;;;;5012773;28;20160;-78
2023/03/05 02:37:46;;;;;;;2.08;1.27;;;;;;;;;;5050030;28;20064;-79
2023/03/05 02:40:12;;;;;;;2.17;1.20;;;;;;;;;;5032462;28;20089;-79
2023/03/05 02:42:39;;;;;;;2.50;1.30;;;;;;;;;;5032342;28;20031;-78
2023/03/05 02:45:05;;;;;;;2.92;1.30;;;;;;;;;;5032309;28;20028;-79
2023/03/05 02:47:30;;;;;;;2.10;1.30;;;;;;;;;;4999418;28;20025;-79
2023/03/05 02:49:56;;;;;;;3.35;1.58;;;;;;;;;;5032520;28;20044;-80
2023/03/05 02:52:24;;;;;;;2.65;1.30;;;;;;;;;;5032147;28;20388;-79
2023/03/05 02:54:51;;;;;;;2.70;1.30;;;;;;;;;;5031374;28;20143;-79
2023/03/05 02:57:16;;;;;;;2.40;1.20;;;;;;;;;;5035738;28;20138;-79
2023/03/05 02:59:42;;;;;;;4.28;1.38;;;;;;;;;;5050261;28;20115;-79
2023/03/05 03:02:07;;;;;;;;;;;;;;;;;;5035967;28;20021;-79
2023/03/05 03:04:33;;;;;;;2.55;1.30;;;;;;;;;;5069896;28;19943;-79
2023/03/05 03:06:58;;;;;;;3.50;1.30;;;;;;;;;;5052292;28;20024;-79
2023/03/05 03:09:25;;;;;;;;;;;;;;;;;;5070329;28;20227;-79
2023/03/05 03:11:50;;;;;;;4.00;1.33;;;;;;;;;;5056956;28;19912;-79
2023/03/05 03:14:15;;;;;;;3.15;1.30;;;;;;;;;;5069951;28;20479;-79
2023/03/05 03:16:41;;;;;;;3.25;1.40;;;;;;;;;;5069972;28;20449;-80
2023/03/05 03:19:06;;;;;;;;;;;;;;;;;;5070696;28;20485;-79
2023/03/05 03:21:32;;;;;;;3.08;1.50;;;;;;;;;;5070353;28;19908;-79
2023/03/05 03:23:57;;;;;;;3.03;1.60;;;;;;;;;;5035390;28;20403;-79
2023/03/05 03:26:22;;;;;;;2.78;1.42;;;;;;;;;;5051915;28;20403;-79
2023/03/05 03:28:48;;;;;;;4.05;1.40;;;;;;;;;;5051866;28;20044;-79
2023/03/05 03:31:13;;;;;;;2.92;1.40;;;;;;;;;;5069740;28;20028;-79
2023/03/05 03:33:39;;;;;;;;;;;;;;;;;;5034578;28;20040;-79
2023/03/05 03:36:04;;;;;;;2.38;1.20;;;;;;;;;;5072797;28;19912;-79
2023/03/05 03:38:30;;;;;;;;;;;;;;;;;;5056337;28;20051;-79
2023/03/05 03:40:55;;;;;;;4.30;1.50;;;;;;;;;;5073619;28;19936;-81
2023/03/05 03:43:21;;;;;;;2.75;1.40;;;;;;;;;;5056132;28;20043;-80
2023/03/05 03:45:46;;;;;;;5.88;1.63;;;;;;;;;;5073458;28;20032;-80
2023/03/05 03:48:12;;;;;;;3.78;1.50;;;;;;;;;;5055631;28;20127;-78
2023/03/05 03:50:37;;;;;;;;;;;;;;;;;;5073620;28;20115;-79
2023/03/05 03:53:02;;;;;;;4.57;1.45;;;;;;;;;;5072619;28;20481;-79
2023/03/05 03:55:28;;;;;;;5.45;1.48;;;;;;;;;;5053070;28;20044;-78
2023/03/05 03:57:53;;;;;;;4.43;1.80;;;;;;;;;;5035651;28;20025;-79
2023/03/05 04:00:19;;;;;;;3.63;1.42;;;;;;;;;;5035119;28;20043;-79
2023/03/05 04:02:44;;;;;;;;;;;;;;;;;;5053800;28;20037;-79
2023/03/05 04:05:09;;;;;;;5.32;1.63;;;;;;;;;;5052929;28;19916;-78
2023/03/05 04:07:35;;;;;;;4.13;1.77;;;;;;;;;;5053616;28;20106;-80
2023/03/05 04:10:00;;;;;;;;;;;;;;;;;;5015851;28;20049;-80
2023/03/05 04:12:26;;;;;;;5.00;1.70;;;;;;;;;;5027439;28;19916;-79
2023/03/05 04:14:51;;;;;;;3.80;1.40;;;;;;;;;;5034813;28;20391;-79
2023/03/05 04:17:17;;;;;;;3.20;1.95;;;;;;;;;;5053138;28;20039;-79
2023/03/05 04:19:43;;;;;;;3.25;1.48;;;;;;;;;;5018698;28;20068;-79
2023/03/05 04:22:12;;;;;;;4.18;1.60;;;;;;;;;;5018423;28;20057;-78
2023/03/05 04:24:37;;;;;;;2.05;1.23;;;;;;;;;;5034832;28;20064;-78
2023/03/05 04:27:03;;;;;;;;;;;;;;;;;;5053303;28;20106;-78
2023/03/05 04:29:28;;;;;;;3.50;1.40;;;;;;;;;;5052868;28;19939;-79
2023/03/05 04:31:54;;;;;;;2.92;1.50;;;;;;;;;;5035087;28;20637;-78
2023/03/05 04:34:19;;;;;;;;;;;;;;;;;;5033803;28;20112;-78
2023/03/05 04:36:44;;;;;;;3.97;1.60;;;;;;;;;;5052639;28;19912;-79
2023/03/05 04:39:10;;;;;;;3.90;1.50;;;;;;;;;;5052560;28;20053;-79
2023/03/05 04:41:35;;;;;;;;;;;;;;;;;;5035167;28;20087;-79
2023/03/05 04:44:00;;;;;;;3.78;1.80;;;;;;;;;;5051604;28;19908;-79
2023/03/05 04:46:26;;;;;;;4.72;1.70;;;;;;;;;;5034141;28;20517;-79
2023/03/05 04:48:51;;;;;;;;;;;;;;;;;;5052618;28;20029;-80
2023/03/05 04:51:17;;;;;;;4.25;1.67;;;;;;;;;;5052328;28;19913;-79
2023/03/05 04:53:43;;;;;;;2.80;1.58;;;;;;;;;;5058001;28;20045;-79
2023/03/05 04:56:09;;;;;;;3.33;1.70;;;;;;;;;;5054255;28;20032;-80
2023/03/05 04:58:34;;;;;;;;;;;;;;;;;;5071446;28;20027;-80
2023/03/05 05:01:03;;;;;;;4.57;2.00;;;;;;;;;;5053972;28;19912;-79
2023/03/05 05:03:28;;;;;;;4.18;1.63;;;;;;;;;;5052722;28;20106;-80
2023/03/05 05:05:54;;;;;;;3.50;1.73;;;;;;;;;;5071605;28;20044;-80
2023/03/05 05:08:20;;;;;;;4.18;1.70;;;;;;;;;;5053178;28;20056;-78
2023/03/05 05:10:45;;;;;;;3.47;1.80;;;;;;;;;;5054349;28;20137;-79
2023/03/05 05:13:11;;;;;;;4.97;1.77;;;;;;;;;;5052525;28;20029;-79
2023/03/05 05:15:38;;;;;;;2.30;1.55;;;;;;;;;;5053183;28;20034;-79
2023/03/05 05:18:04;;;;;;;2.80;1.38;;;;;;;;;;5051867;28;20016;-80
2023/03/05 05:20:29;;;;;;;4.93;1.75;;;;;;;;;;5053555;28;20043;-79
2023/03/05 05:22:55;;;;;;;3.70;2.05;;;;;;;;;;5052836;28;20033;-80
2023/03/05 05:25:20;;;;;;;5.65;1.92;;;;;;;;;;5053685;28;20036;-79
2023/03/05 05:27:46;;;;;;;3.10;1.80;;;;;;;;;;5053510;28;20033;-80
2023/03/05 05:30:11;;;;;;;4.28;1.90;;;;;;;;;;5060570;28;20039;-79
2023/03/05 05:32:37;;;;;;;4.60;1.90;;;;;;;;;;5050326;28;20080;-79
2023/03/05 05:35:02;;;;;;;4.07;1.73;;;;;;;;;;5017483;28;20523;-80
2023/03/05 05:37:28;;;;;;;;;;;;;;;;;;5050574;28;20048;-79
2023/03/05 05:39:53;;;;;;;3.15;1.98;;;;;;;;;;5071136;28;20283;-79
2023/03/05 05:42:19;;;;;;;5.97;1.75;;;;;;;;;;5052309;28;20039;-79
2023/03/05 05:44:46;;;;;;;5.15;1.73;;;;;;;;;;5071154;28;20119;-80
2023/03/05 05:47:12;;;;;;;2.75;1.73;;;;;;;;;;5069859;28;20021;-80
2023/03/05 05:49:37;;;;;;;6.10;1.90;;;;;;;;;;5053364;28;20047;-79
2023/03/05 05:52:04;;;;;;;4.53;1.90;;;;;;;;;;5070729;28;20028;-79
2023/03/05 05:54:30;;;;;;;3.17;2.00;;;;;;;;;;5053280;28;20378;-79
2023/03/05 05:56:55;;;;;;;5.55;2.20;;;;;;;;;;5035645;28;20034;-80
2023/03/05 05:59:21;;;;;;;4.03;2.05;;;;;;;;;;5070983;28;20032;-80
2023/03/05 06:01:46;;;;;;;2.50;1.83;;;;;;;;;;5069921;28;20482;-79
2023/03/05 06:04:12;;;;;;;;;;;;;;;;;;5071067;28;20123;-79
2023/03/05 06:06:37;;;;;;;3.15;2.00;;;;;;;;;;5069316;28;20375;-81
2023/03/05 06:09:03;;;;;;;4.95;2.10;;;;;;;;;;5052271;28;20075;-79
2023/03/05 06:11:28;;;;;;;3.95;2.08;;;;;;;;;;5051225;28;20131;-80
2023/03/05 06:13:54;;;;;;;4.60;1.92;;;;;;;;;;5069717;28;20431;-80
2023/03/05 06:16:20;;;;;;;3.70;1.98;;;;;;;;;;5068563;28;20032;-79
2023/03/05 06:18:46;;;;;;;6.88;2.30;;;;;;;;;;5051876;28;20055;-79
2023/03/05 06:21:13;;;;;;;4.32;2.03;;;;;;;;;;5050843;28;20499;-79
2023/03/05 06:23:38;;;;;;;4.20;1.92;;;;;;;;;;5051780;28;20131;-80
2023/03/05 06:26:04;;;;;;;4.95;2.20;;;;;;;;;;5033916;28;20439;-80
2023/03/05 06:28:30;;;;;;;4.72;1.88;;;;;;;;;;5051540;28;20159;-80
2023/03/05 06:30:59;;;;;;;2.60;1.60;;;;;;;;;;5068639;28;20074;-80
2023/03/05 06:33:25;;;;;;;4.35;2.00;;;;;;;;;;5041492;28;20416;-79
2023/03/05 06:35:50;;;;;;;4.25;2.22;;;;;;;;;;5050631;28;20033;-79
2023/03/05 06:38:16;;;;;;;3.75;1.70;;;;;;;;;;5050865;28;20033;-79
2023/03/05 06:40:41;;;;;;;5.18;1.70;;;;;;;;;;5033509;28;20021;-79
2023/03/05 06:43:06;;;;;;;6.43;2.03;;;;;;;;;;5050969;28;20037;-79
2023/03/05 06:45:32;;;;;;;3.15;1.60;;;;;;;;;;5050396;28;20112;-79
2023/03/05 06:47:57;;;;;;;4.55;1.52;;;;;;;;;;5050358;28;20033;-79
2023/03/05 06:50:23;;;;;;;2.83;1.50;;;;;;;;;;5049926;28;20040;-79
2023/03/05 06:52:49;;;;;;;3.20;1.40;;;;;;;;;;5032514;28;20049;-79
2023/03/05 06:55:14;;;;;;;4.10;1.60;;;;;;;;;;5050697;28;20110;-79
2023/03/05 06:57:39;;;;;;;3.38;1.70;;;;;;;;;;5070111;28;20035;-79
2023/03/05 07:00:09;;;;;;;4.13;1.95;;;;;;;;;;5069799;28;20033;-80
2023/03/05 07:02:35;;;;;;;2.65;1.50;;;;;;;;;;5052121;28;20035;-81
2023/03/05 07:05:01;;;;;;;3.92;1.60;;;;;;;;;;5051860;28;20030;-79
2023/03/05 07:07:26;;;;;;;2.28;1.40;;;;;;;;;;5069240;28;20560;-80
2023/03/05 07:09:52;;;;;;;3.47;1.50;;;;;;;;;;5069722;28;20033;-80
2023/03/05 07:12:18;;;;;;;3.63;1.60;;;;;;;;;;5051913;28;20041;-79
2023/03/05 07:14:43;;;;;;;2.30;1.33;;;;;;;;;;5051607;28;20067;-80
2023/03/05 07:17:08;;;;;;;2.42;1.52;;;;;;;;;;5070019;28;20052;-80
2023/03/05 07:19:34;;;;;;;4.00;1.60;;;;;;;;;;5051840;28;20025;-80
2023/03/05 07:21:59;;;;;;;2.40;1.40;;;;;;;;;;5070240;28;20132;-80
2023/03/05 07:24:28;;;;;;;4.32;1.60;;;;;;;;;;5069442;28;20101;-79
2023/03/05 07:26:57;;;;;;;5.45;1.63;;;;;;;;;;5053350;28;20082;-80
2023/03/05 07:29:26;;;;;;;4.00;1.60;;;;;;;;;;5037088;28;20443;-80
2023/03/05 07:31:51;;;;;;;2.78;1.60;;;;;;;;;;5035325;28;20068;-79
2023/03/05 07:34:17;;;;;;;3.40;1.60;;;;;;;;;;5068513;28;20075;-80
2023/03/05 07:36:42;;;;;;;4.43;1.70;;;;;;;;;;5052512;28;20040;-79
2023/03/05 07:39:09;;;;;;;2.78;1.73;;;;;;;;;;5069355;28;20032;-79
2023/03/05 07:41:34;;;;;;;2.67;1.35;;;;;;;;;;5051607;28;20066;-80
2023/03/05 07:43:59;;;;;;;3.78;1.65;;;;;;;;;;5069206;28;20036;-80
2023/03/05 07:46:26;;;;;;;5.25;1.85;;;;;;;;;;5051837;28;20036;-80
2023/03/05 07:48:53;;;;;;;4.63;1.30;;;;;;;;;;5069151;28;20504;-79
2023/03/05 07:51:19;;;;;;;5.95;1.40;;;;;;;;;;5069449;28;20048;-79
2023/03/05 07:53:45;;;;;;;2.50;1.40;;;;;;;;;;5051289;28;20113;-79
2023/03/05 07:56:10;;;;;;;3.50;1.40;;;;;;;;;;5069616;28;20407;-79
2023/03/05 07:58:36;;;;;;;3.30;1.60;;;;;;;;;;5051541;28;20037;-79
2023/03/05 08:01:01;;;;;;;4.93;1.60;;;;;;;;;;5035134;28;20089;-79
2023/03/05 08:03:27;;;;;;;3.17;1.45;;;;;;;;;;5068776;28;20028;-79
2023/03/05 08:05:52;;;;;;;3.83;1.70;;;;;;;;;;5051808;28;20040;-79
2023/03/05 08:08:18;;;;;;;3.80;1.65;;;;;;;;;;5069086;28;20030;-80
2023/03/05 08:10:43;;;;;;;3.70;1.50;;;;;;;;;;5069493;28;20522;-80
2023/03/05 08:13:09;;;;;;;3.00;1.42;;;;;;;;;;5051119;28;20040;-80
2023/03/05 08:15:35;;;;;;;2.92;1.30;;;;;;;;;;5069818;28;20112;-80
2023/03/05 08:18:01;;;;;;;2.80;1.40;;;;;;;;;;5051578;28;20088;-80
2023/03/05 08:20:26;;;;;;;2.58;1.55;;;;;;;;;;5071040;28;20060;-80
2023/03/05 08:22:51;;;;;;;3.78;1.70;;;;;;;;;;5054573;28;20116;-80
2023/03/05 08:25:17;;;;;;;3.42;1.50;;;;;;;;;;5072533;28;20086;-80
2023/03/05 08:27:43;;;;;;;4.43;1.83;;;;;;;;;;5072484;28;20033;-80
2023/03/05 08:30:10;;;;;;;2.33;1.35;;;;;;;;;;5055355;28;20044;-79
2023/03/05 08:32:35;;;;;;;2.60;1.33;;;;;;;;;;5053207;28;20123;-80
2023/03/05 08:35:03;;;;;;;2.13;1.20;;;;;;;;;;5072586;28;20456;-79
2023/03/05 08:37:29;;;;;;;4.22;1.40;;;;;;;;;;5071768;28;20031;-80
2023/03/05 08:39:55;;;;;;;4.13;1.50;;;;;;;;;;5072546;28;20028;-80
2023/03/05 08:42:20;;;;;;;;;;;;;;;;;;5072280;28;20078;-80
2023/03/05 08:44:46;;;;;;;2.28;1.30;;;;;;;;;;5072482;28;20337;-80
2023/03/05 08:47:11;;;;;;;3.92;1.75;;;;;;;;;;5072159;28;20024;-79
2023/03/05 08:49:37;;;;;;;2.70;1.45;;;;;;;;;;5054430;28;20051;-80
2023/03/05 08:52:02;;;;;;;2.50;1.30;;;;;;;;;;5071922;28;20024;-80
2023/03/05 08:54:28;;;;;;;3.58;1.58;;;;;;;;;;5054169;28;20139;-80
2023/03/05 08:56:53;;;;;;;3.05;1.35;;;;;;;;;;5071829;28;20028;-79
2023/03/05 08:59:19;;;;;;;3.05;1.30;;;;;;;;;;5072238;28;20423;-80
2023/03/05 09:01:44;;;;;;;3.10;1.50;;;;;;;;;;5072127;28;20074;-80
2023/03/05 09:04:10;;;;;;;2.67;1.30;;;;;;;;;;5072057;28;20407;-80
2023/03/05 09:06:39;;;;;;;2.85;1.20;;;;;;;;;;5071678;28;20506;-80
2023/03/05 09:09:05;;;;;;;2.97;1.23;;;;;;;;;;5054761;28;20449;-79
2023/03/05 09:11:34;;;;;;;;;;;;;;;;;;5072096;28;20017;-79
2023/03/05 09:14:03;;;;;;;4.00;1.40;;;;;;;;;;5072147;28;20021;-79
2023/03/05 09:16:28;;;;;;;2.25;1.35;;;;;;;;;;5053899;28;20048;-79
2023/03/05 09:18:54;;;;;;;3.53;1.83;;;;;;;;;;5072367;28;20064;-79
2023/03/05 09:21:19;;;;;;;2.42;1.30;;;;;;;;;;5071541;28;20107;-81
2023/03/05 09:23:46;;;;;;;3.17;1.20;;;;;;;;;;5037202;28;20602;-80
2023/03/05 09:26:11;;;;;;;3.42;1.13;;;;;;;;;;5053509;28;20025;-80
2023/03/05 09:28:37;;;;;;;2.22;1.25;;;;;;;;;;5037354;28;20044;-79
2023/03/05 09:31:03;;;;;;;2.00;1.10;;;;;;;;;;5070747;28;20058;-79
2023/03/05 09:33:29;;;;;;;3.35;1.40;;;;;;;;;;5053304;28;20153;-80
2023/03/05 09:35:55;;;;;;;1.77;1.20;;;;;;;;;;5019901;28;20025;-81
2023/03/05 09:38:20;;;;;;;2.55;1.20;;;;;;;;;;5071535;28;20503;-80
2023/03/05 09:40:58;;;;;;;2.53;1.33;;;;;;;;;;5053185;28;20115;-80
2023/03/05 09:43:33;;;;;;;1.90;1.20;;;;;;;;;;5053839;28;20098;-79
2023/03/05 09:46:04;;;;;;;2.83;1.35;;;;;;;;;;5058067;28;20043;-79
2023/03/05 09:49:02;;;;;;;2.47;1.20;;;;;;;;;;5070907;28;20044;-80
2023/03/05 09:51:28;;;;;;;1.98;1.00;;;;;;;;;;4999531;28;20155;-80
2023/03/05 09:53:53;;;;;;;2.78;1.10;;;;;;;;;;5063129;28;20179;-80
2023/03/05 09:56:22;;;;;;;2.42;1.10;;;;;;;;;;5051134;28;20037;-80
2023/03/05 09:58:51;;;;;;;1.98;1.20;;;;;;;;;;5033802;28;20118;-80
2023/03/05 10:01:21;;;;;;;1.63;1.23;;;;;;;;;;5032827;28;20040;-80
2023/03/05 10:03:57;;;;;;;3.00;1.40;;;;;;;;;;5016677;28;20114;-80
2023/03/05 10:06:22;;;;;;;2.85;1.50;;;;;;;;;;5016447;28;20069;-80
2023/03/05 10:09:01;;;;;;;2.40;1.38;;;;;;;;;;5050996;28;20064;-80
2023/03/05 10:11:33;;;;;;;3.08;1.08;;;;;;;;;;5015832;28;20127;-80
2023/03/05 10:13:59;;;;;;;2.03;1.20;;;;;;;;;;5050614;28;20407;-80
2023/03/05 10:16:30;;;;;;;2.60;1.27;;;;;;;;;;5032621;28;20025;-80
2023/03/05 10:19:01;;;;;;;2.92;1.33;;;;;;;;;;5050778;28;20056;-80
2023/03/05 10:21:29;;;;;;;3.58;1.50;;;;;;;;;;5016497;28;20085;-81
2023/03/05 10:23:55;;;;;;;3.08;1.40;;;;;;;;;;5033774;28;20032;-80
2023/03/05 10:26:27;;;;;;;3.13;1.60;;;;;;;;;;5032701;28;20037;-81
2023/03/05 10:29:31;;;;;;;5.20;1.50;;;;;;;;;;5032864;28;20076;-81
2023/03/05 10:32:09;;;;;;;2.40;1.63;;;;;;;;;;4934562;29;20063;-81
2023/03/05 10:34:43;;;;;;;2.33;1.30;;;;;;;;;;4927419;29;20502;-81
2023/03/05 10:37:21;;;;;;;1.83;1.13;;;;;;;;;;4994284;28;20080;-81
2023/03/05 10:40:08;;;;;;;2.40;1.48;;;;;;;;;;5050662;28;20844;-81
2023/03/05 10:42:52;;;;;;;2.20;1.40;;;;;;;;;;5031508;28;20044;-80
2023/03/05 10:45:47;;;;;;;2.35;1.30;;;;;;;;;;5049959;28;20041;-81
2023/03/05 10:48:18;;;;;;;3.75;1.55;;;;;;;;;;5028995;28;20167;-80
2023/03/05 10:50:48;;;;;;;2.67;1.35;;;;;;;;;;5050306;28;20541;-81
2023/03/05 10:53:13;;;;;;;2.58;1.40;;;;;;;;;;5034033;28;20037;-80
2023/03/05 10:55:39;;;;;;;2.58;1.63;;;;;;;;;;5069981;28;20402;-80
2023/03/05 10:58:10;;;;;;;4.20;1.60;;;;;;;;;;5052226;28;20044;-80
2023/03/05 11:00:36;;;;;;;2.63;1.35;;;;;;;;;;5000735;28;20021;-80
2023/03/05 11:03:02;;;;;;;2.67;1.50;;;;;;;;;;5057222;28;20033;-81
2023/03/05 11:05:37;;;;;;;1.85;1.20;;;;;;;;;;5050400;28;20068;-80
2023/03/05 11:08:18;;;;;;;2.00;1.30;;;;;;;;;;5050264;28;20045;-81
2023/03/05 11:10:44;;;;;;;2.60;1.40;;;;;;;;;;5050379;28;20063;-81
2023/03/05 11:13:28;;;;;;;3.55;1.80;;;;;;;;;;5033003;28;20029;-81
2023/03/05 11:16:00;;;;;;;2.65;1.35;;;;;;;;;;5032727;28;20045;-80
2023/03/05 11:18:27;;;;;;;1.95;1.20;;;;;;;;;;5000707;28;20037;-80
2023/03/05 11:20:53;;;;;;;2.50;1.30;;;;;;;;;;5032542;28;20033;-80
2023/03/05 11:23:25;;;;;;;1.67;1.27;;;;;;;;;;5032565;28;20115;-80
2023/03/05 11:25:50;;;;;;;2.67;1.20;;;;;;;;;;5027042;28;20055;-82
2023/03/05 11:28:25;;;;;;;3.45;1.10;;;;;;;;;;5048700;28;20120;-78
2023/03/05 11:30:54;;;;;;;2.03;1.40;;;;;;;;;;5033855;28;20552;-79
2023/03/05 11:33:21;;;;;;;2.58;1.20;;;;;;;;;;5031900;28;20785;-79
2023/03/05 11:35:51;;;;;;;2.63;1.20;;;;;;;;;;5011505;28;20400;-79
2023/03/05 11:38:23;;;;;;;1.58;0.95;;;;;;;;;;5054107;28;20025;-79
2023/03/05 11:40:49;;;;;;;1.48;0.98;;;;;;;;;;5059136;28;20032;-80
2023/03/05 11:43:15;;;;;;;1.77;1.00;;;;;;;;;;5036803;28;20035;-79
2023/03/05 11:45:41;;;;;;;4.10;1.90;;;;;;;;;;5037799;28;20029;-79
2023/03/05 11:48:16;;;;;;;2.78;1.23;;;;;;;;;;5036720;28;20067;-80
2023/03/05 11:50:42;;;;;;;2.38;1.38;;;;;;;;;;5041483;28;20126;-79
2023/03/05 11:53:12;;;;;;;2.67;1.60;;;;;;;;;;5016976;28;20086;-81
2023/03/05 11:55:53;;;;;;;3.35;1.60;;;;;;;;;;5018817;28;20033;-80
2023/03/05 11:58:26;;;;;;;3.47;1.50;;;;;;;;;;5053575;28;20120;-80
2023/03/05 12:00:52;;;;;;;4.28;1.73;;;;;;;;;;5036336;28;20060;-80
2023/03/05 12:03:18;;;;;;;3.70;1.58;;;;;;;;;;5019338;28;20071;-79
2023/03/05 12:05:43;;;;;;;;;;;;;;;;;;5021163;28;20040;-79
2023/03/05 12:08:11;;;;;;;3.75;1.63;;;;;;;;;;5053967;28;19915;-80
2023/03/05 12:10:36;;;;;;;3.20;1.90;;;;;;;;;;5019165;28;20041;-81
2023/03/05 12:13:06;;;;;;;2.50;1.33;;;;;;;;;;5053344;28;20032;-81
2023/03/05 12:15:36;;;;;;;2.30;1.25;;;;;;;;;;5035407;28;20041;-77
2023/03/05 12:18:02;;;;;;;3.40;1.67;;;;;;;;;;5035312;28;20031;-81
2023/03/05 12:20:39;;;;;;;3.00;1.85;;;;;;;;;;5037291;28;20058;-80
2023/03/05 12:23:05;;;;;;;2.88;1.52;;;;;;;;;;5035236;28;20029;-79
2023/03/05 12:25:31;;;;;;;3.65;1.77;;;;;;;;;;5035277;28;20509;-79
2023/03/05 12:27:58;;;;;;;3.38;1.63;;;;;;;;;;5035214;28;20071;-77
2023/03/05 12:30:32;;;;;;;3.20;1.73;;;;;;;;;;5035424;28;20025;-79
2023/03/05 12:32:58;;;;;;;2.95;1.42;;;;;;;;;;5052566;28;20035;-81
2023/03/05 12:35:25;;;;;;;3.13;1.70;;;;;;;;;;5035156;28;20025;-80
2023/03/05 12:37:50;;;;;;;2.67;1.40;;;;;;;;;;5052775;28;20064;-81
2023/03/05 12:40:26;;;;;;;3.58;1.90;;;;;;;;;;5035039;28;20424;-80
2023/03/05 12:42:52;;;;;;;2.67;1.55;;;;;;;;;;5052016;28;21867;-80
2023/03/05 12:45:18;;;;;;;2.60;1.63;;;;;;;;;;5052559;28;20063;-80
2023/03/05 12:47:44;;;;;;;3.17;1.90;;;;;;;;;;5053022;28;20044;-81
2023/03/05 12:50:25;;;;;;;2.58;1.45;;;;;;;;;;5034599;28;20480;-80
2023/03/05 12:52:51;;;;;;;3.83;1.80;;;;;;;;;;5053004;28;20065;-81
2023/03/05 12:55:19;;;;;;;3.10;1.80;;;;;;;;;;5050781;28;20041;-81
2023/03/05 12:57:44;;;;;;;2.90;1.80;;;;;;;;;;5051779;28;20033;-81
2023/03/05 13:00:13;;;;;;;4.53;1.98;;;;;;;;;;5052584;28;20035;-81
2023/03/05 13:02:40;;;;;;;4.70;1.70;;;;;;;;;;5051463;28;20068;-81
2023/03/05 13:05:17;;;;;;;2.17;1.48;;;;;;;;;;5051792;28;20025;-80
2023/03/05 13:07:43;;;;;;;2.50;1.40;;;;;;;;;;5052582;28;20168;-80
2023/03/05 13:10:20;;;;;;;3.47;1.90;;;;;;;;;;5051285;28;20528;-82
2023/03/05 13:12:49;;;;;;;2.85;1.52;;;;;;;;;;5050734;28;20044;-81
2023/03/05 13:15:14;;;;;;;3.78;1.52;;;;;;;;;;5033644;28;20029;-80
2023/03/05 13:17:43;;;;;;;2.90;1.75;;;;;;;;;;5048863;28;20090;-80
2023/03/05 13:20:26;;;;;;;2.40;1.20;;;;;;;;;;5051801;28;20068;-81
2023/03/05 13:23:10;;;;;;;2.33;1.48;;;;;;;;;;5052365;28;20037;-81
2023/03/05 13:25:36;;;;;;;2.35;1.13;;;;;;;;;;5045863;28;20041;-82
2023/03/05 13:28:03;;;;;;;3.40;1.90;;;;;;;;;;5034313;28;20029;-81
2023/03/05 13:30:28;;;;;;;2.45;1.40;;;;;;;;;;5052201;28;20059;-81
2023/03/05 13:32:55;;;;;;;4.00;1.98;;;;;;;;;;5050021;28;20028;-81
2023/03/05 13:35:20;;;;;;;2.58;1.50;;;;;;;;;;5050599;28;20094;-81
2023/03/05 13:37:46;;;;;;;3.50;1.60;;;;;;;;;;5033771;28;20025;-80
2023/03/05 13:40:20;;;;;;;2.47;1.50;;;;;;;;;;5034045;28;20043;-80
2023/03/05 13:42:46;;;;;;;3.10;1.80;;;;;;;;;;5038088;28;20392;-81
2023/03/05 13:45:20;;;;;;;2.53;1.67;;;;;;;;;;5051326;28;20029;-80
2023/03/05 13:47:53;;;;;;;3.72;1.90;;;;;;;;;;5051488;28;20048;-80
2023/03/05 13:50:32;;;;;;;5.25;1.80;;;;;;;;;;5050376;28;20373;-80
2023/03/05 13:53:14;;;;;;;3.08;1.50;;;;;;;;;;5052051;28;20033;-81
2023/03/05 13:55:39;;;;;;;3.90;1.90;;;;;;;;;;5053090;28;20029;-81
2023/03/05 13:58:05;;;;;;;3.20;1.92;;;;;;;;;;5053548;28;20428;-81
2023/03/05 14:00:30;;;;;;;2.78;1.73;;;;;;;;;;5057965;28;20047;-81
2023/03/05 14:02:56;;;;;;;3.92;1.70;;;;;;;;;;5069388;28;20037;-80
2023/03/05 14:05:22;;;;;;;;;;;;;;;;;;5069945;28;20040;-80
2023/03/05 14:07:48;;;;;;;3.63;2.15;;;;;;;;;;5070088;28;19908;-81
2023/03/05 14:10:13;;;;;;;;;;;;;;;;;;5052154;28;20036;-80
2023/03/05 14:12:41;;;;;;;3.00;1.88;;;;;;;;;;5052201;28;19919;-80
2023/03/05 14:15:20;;;;;;;3.15;1.73;;;;;;;;;;5052655;28;20025;-80
2023/03/05 14:17:46;;;;;;;2.63;1.90;;;;;;;;;;5058716;28;20422;-80
2023/03/05 14:20:23;;;;;;;3.33;1.88;;;;;;;;;;5052513;28;20033;-79
2023/03/05 14:22:50;;;;;;;4.00;1.90;;;;;;;;;;5049867;28;20122;-80
2023/03/05 14:25:35;;;;;;;3.55;2.03;;;;;;;;;;5035371;28;20024;-81
2023/03/05 14:28:01;;;;;;;3.35;1.92;;;;;;;;;;5050780;28;20036;-80
2023/03/05 14:30:29;;;;;;;;;;;;;;;;;;5052272;28;20044;-81
2023/03/05 14:32:55;;;;;;;2.50;1.67;;;;;;;;;;5062093;28;20422;-80
2023/03/05 14:35:22;;;;;;;3.60;1.92;;;;;;;;;;5060367;28;20166;-80
2023/03/05 14:37:48;;;;;;;2.55;1.67;;;;;;;;;;5052275;28;20039;-80
2023/03/05 14:40:13;;;;;;;4.07;2.42;;;;;;;;;;5040202;28;20035;-80
2023/03/05 14:42:48;;;;;;;4.70;2.42;;;;;;;;;;5050647;28;20079;-81
2023/03/05 14:45:17;;;;;;;4.57;2.60;;;;;;;;;;5063722;28;20494;-81
2023/03/05 14:47:43;;;;;;;3.63;1.80;;;;;;;;;;5024431;28;20099;-81
2023/03/05 14:50:18;;;;;;;3.67;2.03;;;;;;;;;;5069925;28;20534;-81
2023/03/05 14:52:44;;;;;;;3.00;1.95;;;;;;;;;;5052247;28;20047;-81